sensor_id;sensor_type;location;lat;lon;timestamp;P1;durP1;ratioP1;P2;durP2;ratioP2
37645;SDS011;23489;49.600;6.138;2023-04-26T00:04:17;7.45;;;3.78;;
37645;SDS011;23489;49.600;6.138;2023-04-26T00:06:42;9.55;;;4.55;;
37645;SDS011;23489;49.600;6.138;2023-04-26T00:09:08;9.15;;;5.60;;
37645;SDS011;23489;49.600;6.138;2023-04-26T00:11:33;9.32;;;4.90;;
37645;SDS011;23489;49.600;6.138;2023-04-26T00:13:59;7.43;;;4.82;;
37645;SDS011;23489;49.600;6.138;2023-04-26T00:16:25;10.90;;;5.57;;
37645;SDS011;23489;49.600;6.138;2023-04-26T00:18:50;8.57;;;4.85;;
37645;SDS011;23489;49.600;6.138;2023-04-26T00:21:16;11.40;;;4.97;;
37645;SDS011;23489;49.600;6.138;2023-04-26T00:23:41;8.05;;;4.93;;
37645;SDS011;23489;49.600;6.138;2023-04-26T00:26:07;8.63;;;5.10;;
37645;SDS011;23489;49.600;6.138;2023-04-26T00:28:33;9.07;;;5.15;;
37645;SDS011;23489;49.600;6.138;2023-04-26T00:30:59;8.77;;;5.07;;
37645;SDS011;23489;49.600;6.138;2023-04-26T00:33:25;8.05;;;4.97;;
37645;SDS011;23489;49.600;6.138;2023-04-26T00:35:51;7.63;;;5.05;;
37645;SDS011;23489;49.600;6.138;2023-04-26T00:38:16;7.43;;;5.18;;
37645;SDS011;23489;49.600;6.138;2023-04-26T00:40:43;7.82;;;5.47;;
37645;SDS011;23489;49.600;6.138;2023-04-26T00:43:09;9.13;;;4.57;;
37645;SDS011;23489;49.600;6.138;2023-04-26T00:45:36;6.00;;;4.78;;
37645;SDS011;23489;49.600;6.138;2023-04-26T00:48:02;7.50;;;4.80;;
37645;SDS011;23489;49.600;6.138;2023-04-26T00:50:28;8.48;;;4.88;;
37645;SDS011;23489;49.600;6.138;2023-04-26T00:52:58;7.22;;;4.90;;
37645;SDS011;23489;49.600;6.138;2023-04-26T00:55:25;9.43;;;4.82;;
37645;SDS011;23489;49.600;6.138;2023-04-26T00:57:51;9.73;;;4.70;;
37645;SDS011;23489;49.600;6.138;2023-04-26T01:00:17;6.32;;;4.88;;
37645;SDS011;23489;49.600;6.138;2023-04-26T01:02:43;8.98;;;5.85;;
37645;SDS011;23489;49.600;6.138;2023-04-26T01:05:09;9.90;;;5.35;;
37645;SDS011;23489;49.600;6.138;2023-04-26T01:07:36;7.45;;;4.93;;
37645;SDS011;23489;49.600;6.138;2023-04-26T01:10:03;10.02;;;5.20;;
37645;SDS011;23489;49.600;6.138;2023-04-26T01:12:30;6.78;;;5.55;;
37645;SDS011;23489;49.600;6.138;2023-04-26T01:14:56;8.13;;;5.30;;
37645;SDS011;23489;49.600;6.138;2023-04-26T01:17:23;8.25;;;5.32;;
37645;SDS011;23489;49.600;6.138;2023-04-26T01:19:50;8.65;;;5.32;;
37645;SDS011;23489;49.600;6.138;2023-04-26T01:22:16;10.63;;;5.05;;
37645;SDS011;23489;49.600;6.138;2023-04-26T01:24:42;8.88;;;4.88;;
37645;SDS011;23489;49.600;6.138;2023-04-26T01:27:10;7.68;;;5.10;;
37645;SDS011;23489;49.600;6.138;2023-04-26T01:29:39;10.38;;;5.50;;
37645;SDS011;23489;49.600;6.138;2023-04-26T01:32:05;8.00;;;5.07;;
37645;SDS011;23489;49.600;6.138;2023-04-26T01:34:30;13.80;;;5.68;;
37645;SDS011;23489;49.600;6.138;2023-04-26T01:36:58;10.95;;;5.75;;
37645;SDS011;23489;49.600;6.138;2023-04-26T01:39:26;8.88;;;5.25;;
37645;SDS011;23489;49.600;6.138;2023-04-26T01:41:52;9.43;;;5.72;;
37645;SDS011;23489;49.600;6.138;2023-04-26T01:44:18;8.82;;;5.25;;
37645;SDS011;23489;49.600;6.138;2023-04-26T01:46:43;10.75;;;5.63;;
37645;SDS011;23489;49.600;6.138;2023-04-26T01:49:11;10.88;;;5.50;;
37645;SDS011;23489;49.600;6.138;2023-04-26T01:51:37;7.57;;;4.85;;
37645;SDS011;23489;49.600;6.138;2023-04-26T01:54:05;5.97;;;4.90;;
37645;SDS011;23489;49.600;6.138;2023-04-26T01:56:31;10.15;;;5.63;;
37645;SDS011;23489;49.600;6.138;2023-04-26T01:58:59;10.52;;;5.47;;
37645;SDS011;23489;49.600;6.138;2023-04-26T02:01:25;7.80;;;4.97;;
37645;SDS011;23489;49.600;6.138;2023-04-26T02:03:51;12.32;;;6.03;;
37645;SDS011;23489;49.600;6.138;2023-04-26T02:06:18;7.80;;;5.55;;
37645;SDS011;23489;49.600;6.138;2023-04-26T02:08:44;8.55;;;5.28;;
37645;SDS011;23489;49.600;6.138;2023-04-26T02:11:09;9.02;;;5.85;;
37645;SDS011;23489;49.600;6.138;2023-04-26T02:13:35;9.00;;;5.23;;
37645;SDS011;23489;49.600;6.138;2023-04-26T02:16:01;6.72;;;5.47;;
37645;SDS011;23489;49.600;6.138;2023-04-26T02:18:27;12.13;;;7.47;;
37645;SDS011;23489;49.600;6.138;2023-04-26T02:20:53;8.63;;;5.63;;
37645;SDS011;23489;49.600;6.138;2023-04-26T02:23:19;15.30;;;5.70;;
37645;SDS011;23489;49.600;6.138;2023-04-26T02:25:45;8.18;;;5.57;;
37645;SDS011;23489;49.600;6.138;2023-04-26T02:28:15;9.65;;;5.82;;
37645;SDS011;23489;49.600;6.138;2023-04-26T02:30:41;9.48;;;5.40;;
37645;SDS011;23489;49.600;6.138;2023-04-26T02:33:07;7.55;;;5.25;;
37645;SDS011;23489;49.600;6.138;2023-04-26T02:35:34;7.93;;;5.78;;
37645;SDS011;23489;49.600;6.138;2023-04-26T02:38:02;13.07;;;5.55;;
37645;SDS011;23489;49.600;6.138;2023-04-26T02:40:28;13.52;;;6.03;;
37645;SDS011;23489;49.600;6.138;2023-04-26T02:42:54;9.68;;;5.50;;
37645;SDS011;23489;49.600;6.138;2023-04-26T02:45:21;9.43;;;5.80;;
37645;SDS011;23489;49.600;6.138;2023-04-26T02:47:46;9.93;;;5.43;;
37645;SDS011;23489;49.600;6.138;2023-04-26T02:50:12;8.07;;;5.38;;
37645;SDS011;23489;49.600;6.138;2023-04-26T02:52:38;11.70;;;5.78;;
37645;SDS011;23489;49.600;6.138;2023-04-26T02:55:04;8.52;;;5.45;;
37645;SDS011;23489;49.600;6.138;2023-04-26T02:57:30;10.35;;;5.47;;
37645;SDS011;23489;49.600;6.138;2023-04-26T02:59:56;11.63;;;5.80;;
37645;SDS011;23489;49.600;6.138;2023-04-26T03:02:22;9.63;;;5.18;;
37645;SDS011;23489;49.600;6.138;2023-04-26T03:04:48;10.60;;;5.72;;
37645;SDS011;23489;49.600;6.138;2023-04-26T03:07:14;10.30;;;5.60;;
37645;SDS011;23489;49.600;6.138;2023-04-26T03:09:41;8.50;;;5.43;;
37645;SDS011;23489;49.600;6.138;2023-04-26T03:12:07;10.27;;;5.40;;
37645;SDS011;23489;49.600;6.138;2023-04-26T03:14:33;12.13;;;6.07;;
37645;SDS011;23489;49.600;6.138;2023-04-26T03:17:00;10.00;;;5.43;;
37645;SDS011;23489;49.600;6.138;2023-04-26T03:19:26;10.18;;;5.65;;
37645;SDS011;23489;49.600;6.138;2023-04-26T03:21:55;8.57;;;5.43;;
37645;SDS011;23489;49.600;6.138;2023-04-26T03:24:21;8.83;;;5.30;;
37645;SDS011;23489;49.600;6.138;2023-04-26T03:26:48;11.00;;;5.25;;
37645;SDS011;23489;49.600;6.138;2023-04-26T03:29:14;8.50;;;5.80;;
37645;SDS011;23489;49.600;6.138;2023-04-26T03:31:40;17.73;;;6.40;;
37645;SDS011;23489;49.600;6.138;2023-04-26T03:34:06;11.77;;;6.53;;
37645;SDS011;23489;49.600;6.138;2023-04-26T03:36:32;7.67;;;5.60;;
37645;SDS011;23489;49.600;6.138;2023-04-26T03:38:59;10.63;;;5.72;;
37645;SDS011;23489;49.600;6.138;2023-04-26T03:41:25;8.95;;;6.18;;
37645;SDS011;23489;49.600;6.138;2023-04-26T03:43:52;9.15;;;5.85;;
37645;SDS011;23489;49.600;6.138;2023-04-26T03:46:18;11.20;;;5.70;;
37645;SDS011;23489;49.600;6.138;2023-04-26T03:48:46;10.33;;;5.97;;
37645;SDS011;23489;49.600;6.138;2023-04-26T03:51:12;8.13;;;5.72;;
37645;SDS011;23489;49.600;6.138;2023-04-26T03:53:38;9.98;;;5.68;;
37645;SDS011;23489;49.600;6.138;2023-04-26T03:56:05;8.43;;;5.40;;
37645;SDS011;23489;49.600;6.138;2023-04-26T03:58:31;10.10;;;5.05;;
37645;SDS011;23489;49.600;6.138;2023-04-26T04:00:57;9.88;;;5.85;;
37645;SDS011;23489;49.600;6.138;2023-04-26T04:03:23;9.30;;;5.18;;
37645;SDS011;23489;49.600;6.138;2023-04-26T04:05:50;10.77;;;5.77;;
37645;SDS011;23489;49.600;6.138;2023-04-26T04:08:16;7.75;;;5.45;;
37645;SDS011;23489;49.600;6.138;2023-04-26T04:10:41;10.32;;;5.50;;
37645;SDS011;23489;49.600;6.138;2023-04-26T04:13:08;7.18;;;5.10;;
37645;SDS011;23489;49.600;6.138;2023-04-26T04:15:34;10.88;;;6.13;;
37645;SDS011;23489;49.600;6.138;2023-04-26T04:18:00;10.02;;;6.13;;
37645;SDS011;23489;49.600;6.138;2023-04-26T04:20:26;9.80;;;6.03;;
37645;SDS011;23489;49.600;6.138;2023-04-26T04:22:54;11.65;;;6.68;;
37645;SDS011;23489;49.600;6.138;2023-04-26T04:25:20;11.25;;;6.95;;
37645;SDS011;23489;49.600;6.138;2023-04-26T04:27:47;11.90;;;6.60;;
37645;SDS011;23489;49.600;6.138;2023-04-26T04:30:13;12.15;;;6.03;;
37645;SDS011;23489;49.600;6.138;2023-04-26T04:32:39;8.73;;;6.45;;
37645;SDS011;23489;49.600;6.138;2023-04-26T04:35:10;11.63;;;6.38;;
37645;SDS011;23489;49.600;6.138;2023-04-26T04:37:36;9.55;;;5.55;;
37645;SDS011;23489;49.600;6.138;2023-04-26T04:40:02;8.73;;;6.35;;
37645;SDS011;23489;49.600;6.138;2023-04-26T04:42:32;12.02;;;6.40;;
37645;SDS011;23489;49.600;6.138;2023-04-26T04:45:01;10.30;;;6.25;;
37645;SDS011;23489;49.600;6.138;2023-04-26T04:47:30;13.93;;;6.07;;
37645;SDS011;23489;49.600;6.138;2023-04-26T04:49:56;12.45;;;6.20;;
37645;SDS011;23489;49.600;6.138;2023-04-26T04:52:23;15.30;;;6.85;;
37645;SDS011;23489;49.600;6.138;2023-04-26T04:54:48;11.90;;;6.07;;
37645;SDS011;23489;49.600;6.138;2023-04-26T04:57:14;20.05;;;10.98;;
37645;SDS011;23489;49.600;6.138;2023-04-26T04:59:42;13.27;;;7.13;;
37645;SDS011;23489;49.600;6.138;2023-04-26T05:02:08;16.67;;;6.78;;
37645;SDS011;23489;49.600;6.138;2023-04-26T05:04:34;11.95;;;6.07;;
37645;SDS011;23489;49.600;6.138;2023-04-26T05:07:00;11.82;;;7.18;;
37645;SDS011;23489;49.600;6.138;2023-04-26T05:09:26;8.57;;;5.82;;
37645;SDS011;23489;49.600;6.138;2023-04-26T05:11:52;8.90;;;6.68;;
37645;SDS011;23489;49.600;6.138;2023-04-26T05:14:18;19.48;;;9.02;;
37645;SDS011;23489;49.600;6.138;2023-04-26T05:16:44;17.67;;;7.88;;
37645;SDS011;23489;49.600;6.138;2023-04-26T05:19:09;13.25;;;7.97;;
37645;SDS011;23489;49.600;6.138;2023-04-26T05:21:37;15.73;;;8.35;;
37645;SDS011;23489;49.600;6.138;2023-04-26T05:24:04;15.18;;;8.52;;
37645;SDS011;23489;49.600;6.138;2023-04-26T05:26:30;11.80;;;7.40;;
37645;SDS011;23489;49.600;6.138;2023-04-26T05:29:18;25.30;;;12.20;;
37645;SDS011;23489;49.600;6.138;2023-04-26T05:32:04;17.40;;;9.85;;
37645;SDS011;23489;49.600;6.138;2023-04-26T05:59:08;9.65;;;5.95;;
37645;SDS011;23489;49.600;6.138;2023-04-26T06:01:34;10.05;;;5.53;;
37645;SDS011;23489;49.600;6.138;2023-04-26T06:04:01;10.23;;;5.15;;
37645;SDS011;23489;49.600;6.138;2023-04-26T06:06:33;8.27;;;5.78;;
37645;SDS011;23489;49.600;6.138;2023-04-26T06:08:58;10.50;;;5.80;;
37645;SDS011;23489;49.600;6.138;2023-04-26T06:11:25;10.18;;;5.97;;
37645;SDS011;23489;49.600;6.138;2023-04-26T06:13:52;7.57;;;4.88;;
37645;SDS011;23489;49.600;6.138;2023-04-26T06:16:17;6.90;;;4.60;;
37645;SDS011;23489;49.600;6.138;2023-04-26T06:18:43;9.70;;;5.82;;
37645;SDS011;23489;49.600;6.138;2023-04-26T06:21:09;11.60;;;5.20;;
37645;SDS011;23489;49.600;6.138;2023-04-26T06:23:35;8.05;;;4.72;;
37645;SDS011;23489;49.600;6.138;2023-04-26T06:26:00;7.10;;;5.05;;
37645;SDS011;23489;49.600;6.138;2023-04-26T06:28:26;7.93;;;4.75;;
37645;SDS011;23489;49.600;6.138;2023-04-26T06:30:51;6.85;;;4.15;;
37645;SDS011;23489;49.600;6.138;2023-04-26T06:33:17;8.43;;;4.40;;
37645;SDS011;23489;49.600;6.138;2023-04-26T06:35:43;7.00;;;5.00;;
37645;SDS011;23489;49.600;6.138;2023-04-26T06:38:10;11.70;;;6.78;;
37645;SDS011;23489;49.600;6.138;2023-04-26T06:40:37;6.63;;;4.50;;
37645;SDS011;23489;49.600;6.138;2023-04-26T06:43:02;9.45;;;4.68;;
37645;SDS011;23489;49.600;6.138;2023-04-26T06:45:37;12.15;;;4.05;;
37645;SDS011;23489;49.600;6.138;2023-04-26T06:50:29;11.40;;;4.77;;
37645;SDS011;23489;49.600;6.138;2023-04-26T06:52:55;8.05;;;3.88;;
37645;SDS011;23489;49.600;6.138;2023-04-26T06:55:21;9.05;;;4.28;;
37645;SDS011;23489;49.600;6.138;2023-04-26T06:57:46;6.20;;;4.15;;
37645;SDS011;23489;49.600;6.138;2023-04-26T07:00:13;7.18;;;3.50;;
37645;SDS011;23489;49.600;6.138;2023-04-26T07:02:39;9.45;;;3.50;;
37645;SDS011;23489;49.600;6.138;2023-04-26T07:05:05;9.05;;;3.50;;
37645;SDS011;23489;49.600;6.138;2023-04-26T07:07:31;8.52;;;3.38;;
37645;SDS011;23489;49.600;6.138;2023-04-26T07:09:56;13.60;;;5.90;;
37645;SDS011;23489;49.600;6.138;2023-04-26T07:14:47;6.55;;;3.80;;
37645;SDS011;23489;49.600;6.138;2023-04-26T07:17:13;7.00;;;3.35;;
37645;SDS011;23489;49.600;6.138;2023-04-26T07:19:39;11.73;;;3.95;;
37645;SDS011;23489;49.600;6.138;2023-04-26T07:22:04;10.75;;;3.88;;
37645;SDS011;23489;49.600;6.138;2023-04-26T07:46:22;8.05;;;4.05;;
37645;SDS011;23489;49.600;6.138;2023-04-26T07:48:47;5.93;;;3.40;;
37645;SDS011;23489;49.600;6.138;2023-04-26T07:51:13;7.85;;;3.70;;
37645;SDS011;23489;49.600;6.138;2023-04-26T07:53:39;7.18;;;4.30;;
37645;SDS011;23489;49.600;6.138;2023-04-26T07:56:05;7.55;;;4.00;;
37645;SDS011;23489;49.600;6.138;2023-04-26T07:58:32;8.83;;;4.20;;
37645;SDS011;23489;49.600;6.138;2023-04-26T08:01:03;9.23;;;4.18;;
37645;SDS011;23489;49.600;6.138;2023-04-26T08:03:28;10.82;;;4.68;;
37645;SDS011;23489;49.600;6.138;2023-04-26T08:05:54;8.50;;;3.70;;
37645;SDS011;23489;49.600;6.138;2023-04-26T08:08:20;8.85;;;3.63;;
37645;SDS011;23489;49.600;6.138;2023-04-26T08:10:47;7.68;;;3.10;;
37645;SDS011;23489;49.600;6.138;2023-04-26T08:15:38;33.83;;;6.20;;
37645;SDS011;23489;49.600;6.138;2023-04-26T08:18:04;32.67;;;5.80;;
37645;SDS011;23489;49.600;6.138;2023-04-26T08:20:30;10.57;;;4.05;;
37645;SDS011;23489;49.600;6.138;2023-04-26T08:22:56;7.70;;;3.17;;
37645;SDS011;23489;49.600;6.138;2023-04-26T08:27:49;7.22;;;3.85;;
37645;SDS011;23489;49.600;6.138;2023-04-26T08:30:15;22.67;;;4.68;;
37645;SDS011;23489;49.600;6.138;2023-04-26T08:32:41;9.35;;;3.33;;
37645;SDS011;23489;49.600;6.138;2023-04-26T08:35:06;9.57;;;3.50;;
37645;SDS011;23489;49.600;6.138;2023-04-26T08:37:33;10.95;;;4.03;;
37645;SDS011;23489;49.600;6.138;2023-04-26T08:40:00;8.07;;;3.67;;
37645;SDS011;23489;49.600;6.138;2023-04-26T08:42:26;8.48;;;3.38;;
37645;SDS011;23489;49.600;6.138;2023-04-26T08:44:52;9.93;;;3.33;;
37645;SDS011;23489;49.600;6.138;2023-04-26T08:47:21;8.02;;;3.60;;
37645;SDS011;23489;49.600;6.138;2023-04-26T08:50:02;4.75;;;3.20;;
37645;SDS011;23489;49.600;6.138;2023-04-26T08:52:30;9.98;;;3.42;;
37645;SDS011;23489;49.600;6.138;2023-04-26T08:54:56;11.23;;;3.60;;
37645;SDS011;23489;49.600;6.138;2023-04-26T08:57:23;11.10;;;3.38;;
37645;SDS011;23489;49.600;6.138;2023-04-26T09:07:11;10.13;;;3.58;;
37645;SDS011;23489;49.600;6.138;2023-04-26T09:29:36;15.77;;;4.17;;
37645;SDS011;23489;49.600;6.138;2023-04-26T09:32:02;11.27;;;3.97;;
37645;SDS011;23489;49.600;6.138;2023-04-26T09:34:27;11.82;;;3.80;;
37645;SDS011;23489;49.600;6.138;2023-04-26T09:36:54;8.27;;;3.55;;
37645;SDS011;23489;49.600;6.138;2023-04-26T09:39:34;7.45;;;3.25;;
37645;SDS011;23489;49.600;6.138;2023-04-26T09:42:05;7.07;;;3.70;;
37645;SDS011;23489;49.600;6.138;2023-04-26T09:44:31;6.15;;;3.60;;
37645;SDS011;23489;49.600;6.138;2023-04-26T09:46:58;5.03;;;3.08;;
37645;SDS011;23489;49.600;6.138;2023-04-26T09:49:25;7.03;;;3.17;;
37645;SDS011;23489;49.600;6.138;2023-04-26T09:52:04;7.97;;;3.50;;
37645;SDS011;23489;49.600;6.138;2023-04-26T09:57:09;5.35;;;2.97;;
37645;SDS011;23489;49.600;6.138;2023-04-26T09:59:45;5.70;;;3.13;;
37645;SDS011;23489;49.600;6.138;2023-04-26T10:02:26;5.95;;;3.20;;
37645;SDS011;23489;49.600;6.138;2023-04-26T10:04:54;5.55;;;4.00;;
37645;SDS011;23489;49.600;6.138;2023-04-26T10:07:21;6.15;;;3.40;;
37645;SDS011;23489;49.600;6.138;2023-04-26T10:24:28;7.37;;;4.33;;
37645;SDS011;23489;49.600;6.138;2023-04-26T11:07:16;17.98;;;5.70;;
37645;SDS011;23489;49.600;6.138;2023-04-26T11:10:01;33.58;;;9.25;;
37645;SDS011;23489;49.600;6.138;2023-04-26T11:12:27;154.95;;;20.23;;
37645;SDS011;23489;49.600;6.138;2023-04-26T11:14:53;15.55;;;5.00;;
37645;SDS011;23489;49.600;6.138;2023-04-26T11:17:19;28.55;;;6.70;;
37645;SDS011;23489;49.600;6.138;2023-04-26T11:19:45;7.28;;;3.13;;
37645;SDS011;23489;49.600;6.138;2023-04-26T11:22:11;10.35;;;3.30;;
37645;SDS011;23489;49.600;6.138;2023-04-26T11:24:37;8.13;;;3.10;;
37645;SDS011;23489;49.600;6.138;2023-04-26T11:27:09;4.78;;;3.40;;
37645;SDS011;23489;49.600;6.138;2023-04-26T11:29:36;7.65;;;2.65;;
37645;SDS011;23489;49.600;6.138;2023-04-26T11:49:10;10.83;;;4.40;;
37645;SDS011;23489;49.600;6.138;2023-04-26T11:51:36;6.72;;;3.35;;
37645;SDS011;23489;49.600;6.138;2023-04-26T11:54:03;9.13;;;4.70;;
37645;SDS011;23489;49.600;6.138;2023-04-26T11:56:29;7.70;;;3.88;;
37645;SDS011;23489;49.600;6.138;2023-04-26T11:58:55;8.25;;;2.88;;
37645;SDS011;23489;49.600;6.138;2023-04-26T12:01:26;7.40;;;3.20;;
37645;SDS011;23489;49.600;6.138;2023-04-26T12:03:53;8.80;;;3.10;;
37645;SDS011;23489;49.600;6.138;2023-04-26T12:06:19;8.30;;;3.35;;
37645;SDS011;23489;49.600;6.138;2023-04-26T12:08:49;10.35;;;3.25;;
37645;SDS011;23489;49.600;6.138;2023-04-26T12:11:16;7.78;;;2.90;;
37645;SDS011;23489;49.600;6.138;2023-04-26T12:13:44;14.20;;;6.70;;
37645;SDS011;23489;49.600;6.138;2023-04-26T12:16:11;11.15;;;3.65;;
37645;SDS011;23489;49.600;6.138;2023-04-26T12:18:38;7.03;;;2.95;;
37645;SDS011;23489;49.600;6.138;2023-04-26T12:21:04;8.75;;;2.90;;
37645;SDS011;23489;49.600;6.138;2023-04-26T12:23:37;7.78;;;4.15;;
37645;SDS011;23489;49.600;6.138;2023-04-26T12:26:04;19.35;;;3.78;;
37645;SDS011;23489;49.600;6.138;2023-04-26T12:28:31;12.13;;;3.00;;
37645;SDS011;23489;49.600;6.138;2023-04-26T12:30:57;9.48;;;3.10;;
37645;SDS011;23489;49.600;6.138;2023-04-26T12:33:25;8.25;;;2.80;;
37645;SDS011;23489;49.600;6.138;2023-04-26T12:35:50;8.57;;;3.00;;
37645;SDS011;23489;49.600;6.138;2023-04-26T12:38:16;14.85;;;3.33;;
37645;SDS011;23489;49.600;6.138;2023-04-26T12:40:43;3.80;;;2.58;;
37645;SDS011;23489;49.600;6.138;2023-04-26T12:43:08;5.63;;;2.70;;
37645;SDS011;23489;49.600;6.138;2023-04-26T12:45:34;12.90;;;3.90;;
37645;SDS011;23489;49.600;6.138;2023-04-26T12:48:00;5.18;;;2.63;;
37645;SDS011;23489;49.600;6.138;2023-04-26T12:50:26;5.55;;;2.55;;
37645;SDS011;23489;49.600;6.138;2023-04-26T12:52:51;8.13;;;2.75;;
37645;SDS011;23489;49.600;6.138;2023-04-26T12:55:18;11.48;;;3.13;;
37645;SDS011;23489;49.600;6.138;2023-04-26T12:57:44;9.63;;;2.97;;
37645;SDS011;23489;49.600;6.138;2023-04-26T13:00:10;9.23;;;2.80;;
37645;SDS011;23489;49.600;6.138;2023-04-26T13:02:37;71.57;;;7.55;;
37645;SDS011;23489;49.600;6.138;2023-04-26T13:05:03;5.57;;;2.55;;
37645;SDS011;23489;49.600;6.138;2023-04-26T13:07:33;5.07;;;3.17;;
37645;SDS011;23489;49.600;6.138;2023-04-26T13:10:01;6.65;;;3.17;;
37645;SDS011;23489;49.600;6.138;2023-04-26T13:12:28;8.13;;;3.40;;
37645;SDS011;23489;49.600;6.138;2023-04-26T13:14:54;5.20;;;3.17;;
37645;SDS011;23489;49.600;6.138;2023-04-26T13:17:21;15.30;;;6.47;;
37645;SDS011;23489;49.600;6.138;2023-04-26T13:19:48;5.07;;;2.97;;
37645;SDS011;23489;49.600;6.138;2023-04-26T13:22:14;5.03;;;2.70;;
37645;SDS011;23489;49.600;6.138;2023-04-26T13:24:40;5.88;;;3.10;;
37645;SDS011;23489;49.600;6.138;2023-04-26T13:27:06;7.38;;;2.95;;
37645;SDS011;23489;49.600;6.138;2023-04-26T13:29:32;4.47;;;3.10;;
37645;SDS011;23489;49.600;6.138;2023-04-26T13:31:57;3.65;;;2.80;;
37645;SDS011;23489;49.600;6.138;2023-04-26T13:34:24;8.75;;;3.33;;
37645;SDS011;23489;49.600;6.138;2023-04-26T13:36:50;9.15;;;3.00;;
37645;SDS011;23489;49.600;6.138;2023-04-26T13:39:16;5.57;;;3.03;;
37645;SDS011;23489;49.600;6.138;2023-04-26T13:41:42;5.65;;;3.20;;
37645;SDS011;23489;49.600;6.138;2023-04-26T13:44:08;8.23;;;3.13;;
37645;SDS011;23489;49.600;6.138;2023-04-26T13:46:34;7.30;;;3.00;;
37645;SDS011;23489;49.600;6.138;2023-04-26T13:49:00;4.45;;;2.55;;
37645;SDS011;23489;49.600;6.138;2023-04-26T13:51:25;5.38;;;2.67;;
37645;SDS011;23489;49.600;6.138;2023-04-26T13:53:53;9.60;;;3.05;;
37645;SDS011;23489;49.600;6.138;2023-04-26T13:56:19;9.48;;;3.40;;
37645;SDS011;23489;49.600;6.138;2023-04-26T13:58:45;5.75;;;3.20;;
37645;SDS011;23489;49.600;6.138;2023-04-26T14:01:11;5.53;;;2.67;;
37645;SDS011;23489;49.600;6.138;2023-04-26T14:03:38;7.60;;;4.05;;
37645;SDS011;23489;49.600;6.138;2023-04-26T14:06:04;7.53;;;3.13;;
37645;SDS011;23489;49.600;6.138;2023-04-26T14:10:56;7.40;;;2.90;;
37645;SDS011;23489;49.600;6.138;2023-04-26T14:13:22;4.30;;;2.70;;
37645;SDS011;23489;49.600;6.138;2023-04-26T14:15:47;6.85;;;2.65;;
37645;SDS011;23489;49.600;6.138;2023-04-26T14:18:13;7.35;;;2.70;;
37645;SDS011;23489;49.600;6.138;2023-04-26T14:20:40;7.30;;;2.70;;
37645;SDS011;23489;49.600;6.138;2023-04-26T14:23:05;4.72;;;2.22;;
37645;SDS011;23489;49.600;6.138;2023-04-26T14:25:31;5.32;;;2.47;;
37645;SDS011;23489;49.600;6.138;2023-04-26T14:27:57;8.10;;;2.67;;
37645;SDS011;23489;49.600;6.138;2023-04-26T14:30:22;7.18;;;3.05;;
37645;SDS011;23489;49.600;6.138;2023-04-26T14:32:49;6.82;;;2.85;;
37645;SDS011;23489;49.600;6.138;2023-04-26T14:35:15;7.80;;;2.70;;
37645;SDS011;23489;49.600;6.138;2023-04-26T14:37:41;6.78;;;2.88;;
37645;SDS011;23489;49.600;6.138;2023-04-26T14:40:06;6.90;;;3.20;;
37645;SDS011;23489;49.600;6.138;2023-04-26T14:42:33;5.68;;;2.42;;
37645;SDS011;23489;49.600;6.138;2023-04-26T14:44:58;4.05;;;2.60;;
37645;SDS011;23489;49.600;6.138;2023-04-26T14:47:24;4.72;;;2.70;;
37645;SDS011;23489;49.600;6.138;2023-04-26T14:49:50;3.15;;;2.42;;
37645;SDS011;23489;49.600;6.138;2023-04-26T14:52:16;6.00;;;2.58;;
37645;SDS011;23489;49.600;6.138;2023-04-26T14:54:41;4.10;;;2.38;;
37645;SDS011;23489;49.600;6.138;2023-04-26T14:57:07;5.60;;;3.00;;
37645;SDS011;23489;49.600;6.138;2023-04-26T14:59:34;4.38;;;2.55;;
37645;SDS011;23489;49.600;6.138;2023-04-26T15:02:00;7.63;;;3.33;;
37645;SDS011;23489;49.600;6.138;2023-04-26T15:04:26;5.38;;;2.53;;
37645;SDS011;23489;49.600;6.138;2023-04-26T15:06:53;6.03;;;3.05;;
37645;SDS011;23489;49.600;6.138;2023-04-26T15:09:18;6.05;;;2.83;;
37645;SDS011;23489;49.600;6.138;2023-04-26T15:11:44;5.05;;;3.00;;
37645;SDS011;23489;49.600;6.138;2023-04-26T15:14:10;6.82;;;2.47;;
37645;SDS011;23489;49.600;6.138;2023-04-26T15:16:36;6.40;;;3.15;;
37645;SDS011;23489;49.600;6.138;2023-04-26T15:19:01;4.95;;;3.30;;
37645;SDS011;23489;49.600;6.138;2023-04-26T15:21:27;5.70;;;2.83;;
37645;SDS011;23489;49.600;6.138;2023-04-26T15:23:55;7.75;;;2.88;;
37645;SDS011;23489;49.600;6.138;2023-04-26T15:26:21;7.40;;;3.30;;
37645;SDS011;23489;49.600;6.138;2023-04-26T15:28:47;5.40;;;2.70;;
37645;SDS011;23489;49.600;6.138;2023-04-26T15:31:13;5.03;;;2.60;;
37645;SDS011;23489;49.600;6.138;2023-04-26T15:33:39;6.05;;;2.78;;
37645;SDS011;23489;49.600;6.138;2023-04-26T15:36:05;6.30;;;3.08;;
37645;SDS011;23489;49.600;6.138;2023-04-26T15:38:34;4.53;;;3.13;;
37645;SDS011;23489;49.600;6.138;2023-04-26T15:41:00;4.05;;;2.70;;
37645;SDS011;23489;49.600;6.138;2023-04-26T15:43:25;5.20;;;3.40;;
37645;SDS011;23489;49.600;6.138;2023-04-26T15:45:51;6.85;;;3.42;;
37645;SDS011;23489;49.600;6.138;2023-04-26T15:48:17;6.63;;;3.28;;
37645;SDS011;23489;49.600;6.138;2023-04-26T15:50:42;5.65;;;3.10;;
37645;SDS011;23489;49.600;6.138;2023-04-26T15:53:08;6.38;;;3.10;;
37645;SDS011;23489;49.600;6.138;2023-04-26T15:55:34;6.80;;;2.83;;
37645;SDS011;23489;49.600;6.138;2023-04-26T15:58:00;3.75;;;2.78;;
37645;SDS011;23489;49.600;6.138;2023-04-26T16:00:26;6.70;;;3.00;;
37645;SDS011;23489;49.600;6.138;2023-04-26T16:02:52;11.20;;;2.95;;
37645;SDS011;23489;49.600;6.138;2023-04-26T16:05:18;6.40;;;2.90;;
37645;SDS011;23489;49.600;6.138;2023-04-26T16:07:44;5.20;;;2.83;;
37645;SDS011;23489;49.600;6.138;2023-04-26T16:10:09;3.78;;;2.67;;
37645;SDS011;23489;49.600;6.138;2023-04-26T16:12:35;6.70;;;2.80;;
37645;SDS011;23489;49.600;6.138;2023-04-26T16:15:06;9.20;;;2.70;;
37645;SDS011;23489;49.600;6.138;2023-04-26T16:17:33;6.97;;;3.00;;
37645;SDS011;23489;49.600;6.138;2023-04-26T16:20:00;4.32;;;2.95;;
37645;SDS011;23489;49.600;6.138;2023-04-26T16:22:26;6.35;;;2.63;;
37645;SDS011;23489;49.600;6.138;2023-04-26T16:24:52;6.68;;;3.15;;
37645;SDS011;23489;49.600;6.138;2023-04-26T16:27:17;5.35;;;2.25;;
37645;SDS011;23489;49.600;6.138;2023-04-26T16:29:46;6.05;;;3.05;;
37645;SDS011;23489;49.600;6.138;2023-04-26T16:32:12;6.88;;;2.80;;
37645;SDS011;23489;49.600;6.138;2023-04-26T16:34:38;5.68;;;2.95;;
37645;SDS011;23489;49.600;6.138;2023-04-26T16:37:11;4.90;;;2.85;;
37645;SDS011;23489;49.600;6.138;2023-04-26T16:39:36;5.32;;;2.75;;
37645;SDS011;23489;49.600;6.138;2023-04-26T16:42:02;4.10;;;2.70;;
37645;SDS011;23489;49.600;6.138;2023-04-26T16:44:28;6.15;;;3.28;;
37645;SDS011;23489;49.600;6.138;2023-04-26T16:46:54;8.13;;;3.35;;
37645;SDS011;23489;49.600;6.138;2023-04-26T16:49:21;4.93;;;2.60;;
37645;SDS011;23489;49.600;6.138;2023-04-26T16:51:46;7.28;;;2.65;;
37645;SDS011;23489;49.600;6.138;2023-04-26T16:54:23;4.50;;;2.90;;
37645;SDS011;23489;49.600;6.138;2023-04-26T16:56:49;5.13;;;2.75;;
37645;SDS011;23489;49.600;6.138;2023-04-26T16:59:15;7.65;;;3.00;;
37645;SDS011;23489;49.600;6.138;2023-04-26T17:01:41;8.55;;;2.90;;
37645;SDS011;23489;49.600;6.138;2023-04-26T17:04:06;4.13;;;2.47;;
37645;SDS011;23489;49.600;6.138;2023-04-26T17:06:32;4.80;;;2.72;;
37645;SDS011;23489;49.600;6.138;2023-04-26T17:08:57;5.28;;;2.75;;
37645;SDS011;23489;49.600;6.138;2023-04-26T17:11:23;6.13;;;3.05;;
37645;SDS011;23489;49.600;6.138;2023-04-26T17:13:49;3.83;;;2.95;;
37645;SDS011;23489;49.600;6.138;2023-04-26T17:16:14;5.32;;;2.80;;
37645;SDS011;23489;49.600;6.138;2023-04-26T17:18:40;6.88;;;3.50;;
37645;SDS011;23489;49.600;6.138;2023-04-26T17:21:06;5.03;;;2.80;;
37645;SDS011;23489;49.600;6.138;2023-04-26T17:23:31;6.32;;;2.72;;